sensor_id;sensor_type;location;lat;lon;timestamp;P1;durP1;ratioP1;P2;durP2;ratioP2
5871;SDS011;2962;51.312;7.378;2023-08-08T00:00:45;3.00;;;2.40;;
5871;SDS011;2962;51.312;7.378;2023-08-08T00:03:11;1.90;;;1.80;;
5871;SDS011;2962;51.312;7.378;2023-08-08T00:05:36;2.37;;;2.37;;
5871;SDS011;2962;51.312;7.378;2023-08-08T00:08:02;4.83;;;2.30;;
5871;SDS011;2962;51.312;7.378;2023-08-08T00:10:27;3.13;;;2.30;;
5871;SDS011;2962;51.312;7.378;2023-08-08T00:12:53;2.83;;;2.73;;
5871;SDS011;2962;51.312;7.378;2023-08-08T00:15:18;2.33;;;2.13;;
5871;SDS011;2962;51.312;7.378;2023-08-08T00:17:43;4.93;;;2.73;;
5871;SDS011;2962;51.312;7.378;2023-08-08T00:20:09;2.50;;;2.40;;
5871;SDS011;2962;51.312;7.378;2023-08-08T00:22:35;3.10;;;2.30;;
5871;SDS011;2962;51.312;7.378;2023-08-08T00:25:00;3.20;;;2.97;;
5871;SDS011;2962;51.312;7.378;2023-08-08T00:27:25;2.70;;;2.60;;
5871;SDS011;2962;51.312;7.378;2023-08-08T00:29:51;2.70;;;2.60;;
5871;SDS011;2962;51.312;7.378;2023-08-08T00:32:18;3.00;;;2.80;;
5871;SDS011;2962;51.312;7.378;2023-08-08T00:34:43;2.67;;;2.50;;
5871;SDS011;2962;51.312;7.378;2023-08-08T00:37:08;2.30;;;2.20;;
5871;SDS011;2962;51.312;7.378;2023-08-08T00:39:34;12.47;;;2.47;;
5871;SDS011;2962;51.312;7.378;2023-08-08T00:41:59;3.87;;;2.70;;
5871;SDS011;2962;51.312;7.378;2023-08-08T00:44:24;4.30;;;2.33;;
5871;SDS011;2962;51.312;7.378;2023-08-08T00:46:49;3.00;;;2.80;;
5871;SDS011;2962;51.312;7.378;2023-08-08T00:49:15;4.00;;;3.03;;
5871;SDS011;2962;51.312;7.378;2023-08-08T00:51:40;2.47;;;2.27;;
5871;SDS011;2962;51.312;7.378;2023-08-08T00:54:05;9.70;;;2.90;;
5871;SDS011;2962;51.312;7.378;2023-08-08T00:56:32;2.90;;;2.70;;
5871;SDS011;2962;51.312;7.378;2023-08-08T00:58:58;2.37;;;2.37;;
5871;SDS011;2962;51.312;7.378;2023-08-08T01:01:23;2.73;;;2.57;;
5871;SDS011;2962;51.312;7.378;2023-08-08T01:03:48;4.77;;;2.50;;
5871;SDS011;2962;51.312;7.378;2023-08-08T01:08:55;4.23;;;2.70;;
5871;SDS011;2962;51.312;7.378;2023-08-08T01:11:25;2.63;;;2.47;;
5871;SDS011;2962;51.312;7.378;2023-08-08T01:13:54;2.80;;;2.60;;
5871;SDS011;2962;51.312;7.378;2023-08-08T01:16:20;4.30;;;2.40;;
5871;SDS011;2962;51.312;7.378;2023-08-08T01:18:47;3.17;;;2.93;;
5871;SDS011;2962;51.312;7.378;2023-08-08T01:21:13;7.57;;;2.87;;
5871;SDS011;2962;51.312;7.378;2023-08-08T01:26:09;3.60;;;2.20;;
5871;SDS011;2962;51.312;7.378;2023-08-08T01:28:34;2.40;;;2.30;;
5871;SDS011;2962;51.312;7.378;2023-08-08T01:31:00;8.33;;;2.90;;
5871;SDS011;2962;51.312;7.378;2023-08-08T01:33:25;3.97;;;2.93;;
5871;SDS011;2962;51.312;7.378;2023-08-08T01:35:53;9.87;;;2.93;;
5871;SDS011;2962;51.312;7.378;2023-08-08T01:41:00;3.90;;;2.80;;
5871;SDS011;2962;51.312;7.378;2023-08-08T01:43:26;3.23;;;3.00;;
5871;SDS011;2962;51.312;7.378;2023-08-08T01:45:52;5.87;;;3.43;;
5871;SDS011;2962;51.312;7.378;2023-08-08T01:48:18;8.63;;;2.50;;
5871;SDS011;2962;51.312;7.378;2023-08-08T01:50:44;3.10;;;2.90;;
5871;SDS011;2962;51.312;7.378;2023-08-08T01:53:09;6.17;;;3.17;;
5871;SDS011;2962;51.312;7.378;2023-08-08T01:55:35;3.20;;;3.00;;
5871;SDS011;2962;51.312;7.378;2023-08-08T01:58:00;3.70;;;2.77;;
5871;SDS011;2962;51.312;7.378;2023-08-08T02:00:25;3.40;;;3.30;;
5871;SDS011;2962;51.312;7.378;2023-08-08T02:02:51;2.63;;;2.53;;
5871;SDS011;2962;51.312;7.378;2023-08-08T02:05:16;6.23;;;3.33;;
5871;SDS011;2962;51.312;7.378;2023-08-08T02:07:41;3.00;;;2.90;;
5871;SDS011;2962;51.312;7.378;2023-08-08T02:10:07;3.83;;;2.47;;
5871;SDS011;2962;51.312;7.378;2023-08-08T02:12:32;3.37;;;3.00;;
5871;SDS011;2962;51.312;7.378;2023-08-08T02:14:58;4.30;;;3.10;;
5871;SDS011;2962;51.312;7.378;2023-08-08T02:17:24;3.53;;;3.23;;
5871;SDS011;2962;51.312;7.378;2023-08-08T02:19:50;3.40;;;3.10;;
5871;SDS011;2962;51.312;7.378;2023-08-08T02:22:15;2.47;;;2.30;;
5871;SDS011;2962;51.312;7.378;2023-08-08T02:24:41;2.63;;;2.53;;
5871;SDS011;2962;51.312;7.378;2023-08-08T02:27:06;5.93;;;3.23;;
5871;SDS011;2962;51.312;7.378;2023-08-08T02:29:32;4.67;;;2.80;;
5871;SDS011;2962;51.312;7.378;2023-08-08T02:31:57;3.60;;;3.30;;
5871;SDS011;2962;51.312;7.378;2023-08-08T02:34:22;2.97;;;2.70;;
5871;SDS011;2962;51.312;7.378;2023-08-08T02:36:48;3.57;;;3.27;;
5871;SDS011;2962;51.312;7.378;2023-08-08T02:39:14;2.50;;;2.40;;
5871;SDS011;2962;51.312;7.378;2023-08-08T02:41:39;5.10;;;3.30;;
5871;SDS011;2962;51.312;7.378;2023-08-08T02:44:04;3.23;;;3.00;;
5871;SDS011;2962;51.312;7.378;2023-08-08T02:46:31;3.07;;;2.80;;
5871;SDS011;2962;51.312;7.378;2023-08-08T02:48:56;6.87;;;2.50;;
5871;SDS011;2962;51.312;7.378;2023-08-08T02:51:22;3.37;;;3.07;;
5871;SDS011;2962;51.312;7.378;2023-08-08T02:53:47;5.47;;;3.03;;
5871;SDS011;2962;51.312;7.378;2023-08-08T02:56:12;2.93;;;2.83;;
5871;SDS011;2962;51.312;7.378;2023-08-08T02:58:38;2.60;;;2.47;;
5871;SDS011;2962;51.312;7.378;2023-08-08T03:01:03;2.90;;;2.80;;
5871;SDS011;2962;51.312;7.378;2023-08-08T03:03:28;5.10;;;3.10;;
5871;SDS011;2962;51.312;7.378;2023-08-08T03:05:53;8.93;;;3.17;;
5871;SDS011;2962;51.312;7.378;2023-08-08T03:08:19;3.10;;;2.97;;
5871;SDS011;2962;51.312;7.378;2023-08-08T03:10:44;6.03;;;3.13;;
5871;SDS011;2962;51.312;7.378;2023-08-08T03:13:09;5.50;;;2.97;;
5871;SDS011;2962;51.312;7.378;2023-08-08T03:15:35;3.97;;;2.90;;
5871;SDS011;2962;51.312;7.378;2023-08-08T03:18:01;3.47;;;3.00;;
5871;SDS011;2962;51.312;7.378;2023-08-08T03:20:26;4.80;;;3.07;;
5871;SDS011;2962;51.312;7.378;2023-08-08T03:22:52;3.43;;;3.07;;
5871;SDS011;2962;51.312;7.378;2023-08-08T03:25:17;6.03;;;3.27;;
5871;SDS011;2962;51.312;7.378;2023-08-08T03:27:42;3.70;;;2.60;;
5871;SDS011;2962;51.312;7.378;2023-08-08T03:30:08;2.50;;;2.30;;
5871;SDS011;2962;51.312;7.378;2023-08-08T03:32:34;2.50;;;2.40;;
5871;SDS011;2962;51.312;7.378;2023-08-08T03:34:59;4.50;;;3.30;;
5871;SDS011;2962;51.312;7.378;2023-08-08T03:37:24;3.13;;;2.93;;
5871;SDS011;2962;51.312;7.378;2023-08-08T03:39:50;3.27;;;2.90;;
5871;SDS011;2962;51.312;7.378;2023-08-08T03:42:15;5.40;;;2.80;;
5871;SDS011;2962;51.312;7.378;2023-08-08T03:44:40;4.30;;;3.10;;
5871;SDS011;2962;51.312;7.378;2023-08-08T03:47:06;3.70;;;3.27;;
5871;SDS011;2962;51.312;7.378;2023-08-08T03:49:32;8.30;;;3.80;;
5871;SDS011;2962;51.312;7.378;2023-08-08T03:51:58;5.50;;;3.20;;
5871;SDS011;2962;51.312;7.378;2023-08-08T03:54:23;3.40;;;3.10;;
5871;SDS011;2962;51.312;7.378;2023-08-08T03:56:48;3.37;;;3.27;;
5871;SDS011;2962;51.312;7.378;2023-08-08T03:59:14;7.90;;;3.70;;
5871;SDS011;2962;51.312;7.378;2023-08-08T04:01:39;4.43;;;3.97;;
5871;SDS011;2962;51.312;7.378;2023-08-08T04:04:04;3.83;;;3.50;;
5871;SDS011;2962;51.312;7.378;2023-08-08T04:06:30;5.80;;;3.80;;
5871;SDS011;2962;51.312;7.378;2023-08-08T04:08:56;3.97;;;3.67;;
5871;SDS011;2962;51.312;7.378;2023-08-08T04:11:21;6.70;;;4.67;;
5871;SDS011;2962;51.312;7.378;2023-08-08T04:13:46;4.30;;;3.93;;
5871;SDS011;2962;51.312;7.378;2023-08-08T04:16:12;10.03;;;4.97;;
5871;SDS011;2962;51.312;7.378;2023-08-08T04:18:37;5.17;;;4.30;;
5871;SDS011;2962;51.312;7.378;2023-08-08T04:21:02;9.20;;;4.70;;
5871;SDS011;2962;51.312;7.378;2023-08-08T04:23:28;4.70;;;4.23;;
5871;SDS011;2962;51.312;7.378;2023-08-08T04:25:54;6.93;;;4.47;;
5871;SDS011;2962;51.312;7.378;2023-08-08T04:28:19;8.23;;;4.10;;
5871;SDS011;2962;51.312;7.378;2023-08-08T04:30:45;6.47;;;5.40;;
5871;SDS011;2962;51.312;7.378;2023-08-08T04:33:10;5.43;;;5.03;;
5871;SDS011;2962;51.312;7.378;2023-08-08T04:35:35;5.63;;;4.90;;
5871;SDS011;2962;51.312;7.378;2023-08-08T04:38:01;10.43;;;5.10;;
5871;SDS011;2962;51.312;7.378;2023-08-08T04:40:26;6.70;;;6.20;;
5871;SDS011;2962;51.312;7.378;2023-08-08T04:42:52;16.40;;;6.37;;
5871;SDS011;2962;51.312;7.378;2023-08-08T04:45:17;14.93;;;6.40;;
5871;SDS011;2962;51.312;7.378;2023-08-08T04:47:43;8.40;;;6.83;;
5871;SDS011;2962;51.312;7.378;2023-08-08T04:50:08;8.87;;;6.57;;
5871;SDS011;2962;51.312;7.378;2023-08-08T04:52:34;9.70;;;7.50;;
5871;SDS011;2962;51.312;7.378;2023-08-08T04:55:00;13.63;;;7.93;;
5871;SDS011;2962;51.312;7.378;2023-08-08T04:57:25;10.60;;;7.83;;
5871;SDS011;2962;51.312;7.378;2023-08-08T04:59:50;15.07;;;8.93;;
5871;SDS011;2962;51.312;7.378;2023-08-08T05:02:15;17.50;;;8.57;;
5871;SDS011;2962;51.312;7.378;2023-08-08T05:04:41;11.67;;;8.10;;
5871;SDS011;2962;51.312;7.378;2023-08-08T05:07:06;15.87;;;7.87;;
5871;SDS011;2962;51.312;7.378;2023-08-08T05:09:32;15.60;;;9.20;;
5871;SDS011;2962;51.312;7.378;2023-08-08T05:11:58;15.50;;;9.23;;
5871;SDS011;2962;51.312;7.378;2023-08-08T05:14:23;20.43;;;10.30;;
5871;SDS011;2962;51.312;7.378;2023-08-08T05:16:48;18.10;;;8.87;;
5871;SDS011;2962;51.312;7.378;2023-08-08T05:19:14;16.30;;;10.80;;
5871;SDS011;2962;51.312;7.378;2023-08-08T05:21:39;14.93;;;10.27;;
5871;SDS011;2962;51.312;7.378;2023-08-08T05:24:05;21.00;;;9.63;;
5871;SDS011;2962;51.312;7.378;2023-08-08T05:26:30;20.47;;;9.80;;
5871;SDS011;2962;51.312;7.378;2023-08-08T05:28:56;19.73;;;10.23;;
5871;SDS011;2962;51.312;7.378;2023-08-08T05:31:21;16.00;;;10.63;;
5871;SDS011;2962;51.312;7.378;2023-08-08T05:33:47;22.50;;;10.83;;
5871;SDS011;2962;51.312;7.378;2023-08-08T05:36:13;23.13;;;11.17;;
5871;SDS011;2962;51.312;7.378;2023-08-08T05:38:39;21.30;;;11.60;;
5871;SDS011;2962;51.312;7.378;2023-08-08T05:41:04;18.30;;;12.47;;
5871;SDS011;2962;51.312;7.378;2023-08-08T05:43:29;16.10;;;12.60;;
5871;SDS011;2962;51.312;7.378;2023-08-08T05:45:55;23.87;;;13.63;;
5871;SDS011;2962;51.312;7.378;2023-08-08T05:48:20;19.20;;;11.70;;
5871;SDS011;2962;51.312;7.378;2023-08-08T05:50:45;32.50;;;14.20;;
5871;SDS011;2962;51.312;7.378;2023-08-08T05:53:10;26.63;;;14.13;;
5871;SDS011;2962;51.312;7.378;2023-08-08T05:55:36;20.10;;;13.77;;
5871;SDS011;2962;51.312;7.378;2023-08-08T05:58:02;21.77;;;12.23;;
5871;SDS011;2962;51.312;7.378;2023-08-08T06:00:27;24.60;;;13.60;;
5871;SDS011;2962;51.312;7.378;2023-08-08T06:02:53;30.40;;;14.57;;
5871;SDS011;2962;51.312;7.378;2023-08-08T06:05:19;34.00;;;14.30;;
5871;SDS011;2962;51.312;7.378;2023-08-08T06:07:46;34.97;;;14.43;;
5871;SDS011;2962;51.312;7.378;2023-08-08T06:10:12;41.50;;;15.90;;
5871;SDS011;2962;51.312;7.378;2023-08-08T06:12:37;29.03;;;14.70;;
5871;SDS011;2962;51.312;7.378;2023-08-08T06:15:02;23.70;;;15.60;;
5871;SDS011;2962;51.312;7.378;2023-08-08T06:17:29;31.93;;;16.10;;
5871;SDS011;2962;51.312;7.378;2023-08-08T06:19:54;36.63;;;16.63;;
5871;SDS011;2962;51.312;7.378;2023-08-08T06:22:21;37.20;;;16.23;;
5871;SDS011;2962;51.312;7.378;2023-08-08T06:24:46;37.87;;;16.77;;
5871;SDS011;2962;51.312;7.378;2023-08-08T06:27:12;27.10;;;14.67;;
5871;SDS011;2962;51.312;7.378;2023-08-08T06:29:38;25.17;;;16.47;;
5871;SDS011;2962;51.312;7.378;2023-08-08T06:32:04;31.57;;;17.70;;
5871;SDS011;2962;51.312;7.378;2023-08-08T06:34:29;27.50;;;16.33;;
5871;SDS011;2962;51.312;7.378;2023-08-08T06:36:54;30.63;;;16.30;;
5871;SDS011;2962;51.312;7.378;2023-08-08T06:39:20;30.33;;;15.77;;
5871;SDS011;2962;51.312;7.378;2023-08-08T06:41:46;27.40;;;15.80;;
5871;SDS011;2962;51.312;7.378;2023-08-08T06:44:12;27.90;;;15.60;;
5871;SDS011;2962;51.312;7.378;2023-08-08T06:46:38;22.73;;;15.47;;
5871;SDS011;2962;51.312;7.378;2023-08-08T06:49:03;30.97;;;16.43;;
5871;SDS011;2962;51.312;7.378;2023-08-08T06:51:29;33.90;;;16.03;;
5871;SDS011;2962;51.312;7.378;2023-08-08T06:53:54;33.80;;;16.27;;
5871;SDS011;2962;51.312;7.378;2023-08-08T06:56:20;30.37;;;17.73;;
5871;SDS011;2962;51.312;7.378;2023-08-08T06:58:45;34.33;;;17.87;;
5871;SDS011;2962;51.312;7.378;2023-08-08T07:01:11;31.27;;;16.70;;
5871;SDS011;2962;51.312;7.378;2023-08-08T07:03:37;38.90;;;17.50;;
5871;SDS011;2962;51.312;7.378;2023-08-08T07:06:02;29.77;;;14.20;;
5871;SDS011;2962;51.312;7.378;2023-08-08T07:08:28;26.83;;;13.83;;
5871;SDS011;2962;51.312;7.378;2023-08-08T07:10:54;33.80;;;15.30;;
5871;SDS011;2962;51.312;7.378;2023-08-08T07:13:19;20.43;;;15.63;;
5871;SDS011;2962;51.312;7.378;2023-08-08T07:15:45;20.70;;;12.50;;
5871;SDS011;2962;51.312;7.378;2023-08-08T07:18:10;34.80;;;15.87;;
5871;SDS011;2962;51.312;7.378;2023-08-08T07:20:35;28.53;;;16.90;;
5871;SDS011;2962;51.312;7.378;2023-08-08T07:23:01;32.90;;;17.40;;
5871;SDS011;2962;51.312;7.378;2023-08-08T07:25:26;23.80;;;15.63;;
5871;SDS011;2962;51.312;7.378;2023-08-08T07:27:52;22.67;;;16.00;;
5871;SDS011;2962;51.312;7.378;2023-08-08T07:30:17;20.90;;;13.73;;
5871;SDS011;2962;51.312;7.378;2023-08-08T07:32:42;37.93;;;16.57;;
5871;SDS011;2962;51.312;7.378;2023-08-08T07:35:08;35.23;;;16.23;;
5871;SDS011;2962;51.312;7.378;2023-08-08T07:37:33;26.93;;;15.50;;
5871;SDS011;2962;51.312;7.378;2023-08-08T07:39:59;25.50;;;14.40;;
5871;SDS011;2962;51.312;7.378;2023-08-08T07:42:25;22.80;;;14.80;;
5871;SDS011;2962;51.312;7.378;2023-08-08T07:44:51;23.43;;;13.90;;
5871;SDS011;2962;51.312;7.378;2023-08-08T07:47:16;27.63;;;13.50;;
5871;SDS011;2962;51.312;7.378;2023-08-08T07:49:41;21.77;;;12.63;;
5871;SDS011;2962;51.312;7.378;2023-08-08T07:52:07;17.67;;;10.57;;
5871;SDS011;2962;51.312;7.378;2023-08-08T07:54:32;34.67;;;12.37;;
5871;SDS011;2962;51.312;7.378;2023-08-08T07:56:58;20.07;;;10.93;;
5871;SDS011;2962;51.312;7.378;2023-08-08T07:59:24;21.43;;;11.40;;
5871;SDS011;2962;51.312;7.378;2023-08-08T08:01:49;26.27;;;9.87;;
5871;SDS011;2962;51.312;7.378;2023-08-08T08:04:14;16.67;;;9.53;;
5871;SDS011;2962;51.312;7.378;2023-08-08T08:06:39;16.80;;;8.83;;
5871;SDS011;2962;51.312;7.378;2023-08-08T08:09:05;11.37;;;8.00;;
5871;SDS011;2962;51.312;7.378;2023-08-08T08:11:30;11.13;;;6.90;;
5871;SDS011;2962;51.312;7.378;2023-08-08T08:13:55;14.30;;;7.37;;
5871;SDS011;2962;51.312;7.378;2023-08-08T08:16:21;13.50;;;6.90;;
5871;SDS011;2962;51.312;7.378;2023-08-08T08:18:46;11.40;;;5.77;;
5871;SDS011;2962;51.312;7.378;2023-08-08T08:21:13;8.77;;;5.90;;
5871;SDS011;2962;51.312;7.378;2023-08-08T08:23:39;10.37;;;5.30;;
5871;SDS011;2962;51.312;7.378;2023-08-08T08:26:05;6.40;;;5.80;;
5871;SDS011;2962;51.312;7.378;2023-08-08T08:28:30;10.40;;;5.93;;
5871;SDS011;2962;51.312;7.378;2023-08-08T08:30:55;12.43;;;6.20;;
5871;SDS011;2962;51.312;7.378;2023-08-08T08:33:21;11.63;;;5.73;;
5871;SDS011;2962;51.312;7.378;2023-08-08T08:35:46;11.30;;;4.83;;
5871;SDS011;2962;51.312;7.378;2023-08-08T08:38:12;10.97;;;5.57;;
5871;SDS011;2962;51.312;7.378;2023-08-08T08:40:37;10.77;;;5.17;;
5871;SDS011;2962;51.312;7.378;2023-08-08T08:43:05;9.43;;;5.17;;
5871;SDS011;2962;51.312;7.378;2023-08-08T08:45:32;5.60;;;4.43;;
5871;SDS011;2962;51.312;7.378;2023-08-08T08:48:02;8.03;;;5.80;;
5871;SDS011;2962;51.312;7.378;2023-08-08T08:50:28;6.23;;;5.57;;
5871;SDS011;2962;51.312;7.378;2023-08-08T08:52:56;10.33;;;5.27;;
5871;SDS011;2962;51.312;7.378;2023-08-08T08:55:24;5.83;;;4.87;;
5871;SDS011;2962;51.312;7.378;2023-08-08T08:57:50;9.50;;;4.80;;
5871;SDS011;2962;51.312;7.378;2023-08-08T09:00:15;7.63;;;4.83;;
5871;SDS011;2962;51.312;7.378;2023-08-08T09:02:41;7.57;;;5.40;;
5871;SDS011;2962;51.312;7.378;2023-08-08T09:05:07;13.90;;;5.40;;
5871;SDS011;2962;51.312;7.378;2023-08-08T09:07:32;14.07;;;5.03;;
5871;SDS011;2962;51.312;7.378;2023-08-08T09:09:58;5.53;;;4.17;;
5871;SDS011;2962;51.312;7.378;2023-08-08T09:12:24;7.20;;;4.07;;
5871;SDS011;2962;51.312;7.378;2023-08-08T09:14:54;11.37;;;4.37;;
5871;SDS011;2962;51.312;7.378;2023-08-08T09:17:24;5.23;;;3.53;;
5871;SDS011;2962;51.312;7.378;2023-08-08T09:19:52;10.87;;;3.97;;
5871;SDS011;2962;51.312;7.378;2023-08-08T09:22:18;6.67;;;3.67;;
5871;SDS011;2962;51.312;7.378;2023-08-08T09:24:44;6.07;;;3.07;;
5871;SDS011;2962;51.312;7.378;2023-08-08T09:27:11;6.53;;;3.30;;
5871;SDS011;2962;51.312;7.378;2023-08-08T09:29:37;3.47;;;3.20;;
5871;SDS011;2962;51.312;7.378;2023-08-08T09:32:03;6.10;;;3.10;;
5871;SDS011;2962;51.312;7.378;2023-08-08T09:34:30;10.03;;;3.43;;
5871;SDS011;2962;51.312;7.378;2023-08-08T09:36:55;7.13;;;3.50;;
5871;SDS011;2962;51.312;7.378;2023-08-08T09:39:20;4.30;;;2.80;;
5871;SDS011;2962;51.312;7.378;2023-08-08T09:41:46;7.70;;;3.90;;
5871;SDS011;2962;51.312;7.378;2023-08-08T09:44:12;9.80;;;2.43;;
5871;SDS011;2962;51.312;7.378;2023-08-08T09:46:38;5.60;;;2.97;;
5871;SDS011;2962;51.312;7.378;2023-08-08T09:49:05;6.87;;;3.20;;
5871;SDS011;2962;51.312;7.378;2023-08-08T09:51:31;12.27;;;3.07;;
5871;SDS011;2962;51.312;7.378;2023-08-08T09:53:58;5.70;;;2.30;;
5871;SDS011;2962;51.312;7.378;2023-08-08T09:56:24;8.63;;;2.87;;
5871;SDS011;2962;51.312;7.378;2023-08-08T09:58:50;12.30;;;3.20;;
5871;SDS011;2962;51.312;7.378;2023-08-08T10:01:16;12.57;;;2.80;;
5871;SDS011;2962;51.312;7.378;2023-08-08T10:03:42;4.90;;;2.80;;
5871;SDS011;2962;51.312;7.378;2023-08-08T10:06:08;9.33;;;3.40;;
5871;SDS011;2962;51.312;7.378;2023-08-08T10:08:34;4.43;;;2.60;;
5871;SDS011;2962;51.312;7.378;2023-08-08T10:11:00;3.30;;;2.50;;
5871;SDS011;2962;51.312;7.378;2023-08-08T10:13:27;4.50;;;3.33;;
5871;SDS011;2962;51.312;7.378;2023-08-08T10:15:53;5.07;;;2.90;;
5871;SDS011;2962;51.312;7.378;2023-08-08T10:18:23;8.23;;;3.10;;
5871;SDS011;2962;51.312;7.378;2023-08-08T10:20:49;2.60;;;2.30;;
5871;SDS011;2962;51.312;7.378;2023-08-08T10:23:19;5.63;;;2.50;;
5871;SDS011;2962;51.312;7.378;2023-08-08T10:25:46;4.53;;;2.73;;
5871;SDS011;2962;51.312;7.378;2023-08-08T10:28:14;8.97;;;3.00;;
5871;SDS011;2962;51.312;7.378;2023-08-08T10:33:15;4.10;;;2.50;;
5871;SDS011;2962;51.312;7.378;2023-08-08T10:35:49;2.73;;;2.00;;
5871;SDS011;2962;51.312;7.378;2023-08-08T10:38:18;6.40;;;2.03;;
5871;SDS011;2962;51.312;7.378;2023-08-08T10:40:44;2.60;;;2.23;;
5871;SDS011;2962;51.312;7.378;2023-08-08T10:43:10;2.50;;;2.40;;
5871;SDS011;2962;51.312;7.378;2023-08-08T10:45:37;6.50;;;2.90;;
5871;SDS011;2962;51.312;7.378;2023-08-08T10:48:08;7.50;;;1.90;;
5871;SDS011;2962;51.312;7.378;2023-08-08T10:50:37;5.60;;;2.70;;
5871;SDS011;2962;51.312;7.378;2023-08-08T10:53:04;5.50;;;2.37;;
5871;SDS011;2962;51.312;7.378;2023-08-08T10:55:35;5.27;;;2.20;;
5871;SDS011;2962;51.312;7.378;2023-08-08T10:58:08;5.43;;;2.60;;
5871;SDS011;2962;51.312;7.378;2023-08-08T11:00:36;2.60;;;2.30;;
5871;SDS011;2962;51.312;7.378;2023-08-08T11:03:04;8.93;;;3.53;;
5871;SDS011;2962;51.312;7.378;2023-08-08T11:05:30;4.87;;;2.60;;
5871;SDS011;2962;51.312;7.378;2023-08-08T11:07:57;6.53;;;2.63;;
5871;SDS011;2962;51.312;7.378;2023-08-08T11:10:24;2.50;;;2.30;;
5871;SDS011;2962;51.312;7.378;2023-08-08T11:13:00;5.53;;;3.03;;
5871;SDS011;2962;51.312;7.378;2023-08-08T11:15:28;2.70;;;2.50;;
5871;SDS011;2962;51.312;7.378;2023-08-08T11:17:54;2.90;;;2.77;;
5871;SDS011;2962;51.312;7.378;2023-08-08T11:20:21;2.03;;;1.93;;
5871;SDS011;2962;51.312;7.378;2023-08-08T11:22:51;3.03;;;2.50;;
5871;SDS011;2962;51.312;7.378;2023-08-08T11:25:17;2.10;;;1.90;;
5871;SDS011;2962;51.312;7.378;2023-08-08T11:27:50;7.07;;;2.43;;
5871;SDS011;2962;51.312;7.378;2023-08-08T11:30:17;6.20;;;2.73;;
5871;SDS011;2962;51.312;7.378;2023-08-08T11:32:43;2.77;;;2.57;;
5871;SDS011;2962;51.312;7.378;2023-08-08T11:35:08;6.37;;;3.10;;
5871;SDS011;2962;51.312;7.378;2023-08-08T11:37:34;4.63;;;3.17;;
5871;SDS011;2962;51.312;7.378;2023-08-08T11:39:59;5.70;;;2.73;;
5871;SDS011;2962;51.312;7.378;2023-08-08T11:42:26;7.67;;;3.50;;
5871;SDS011;2962;51.312;7.378;2023-08-08T11:44:51;5.67;;;2.90;;
5871;SDS011;2962;51.312;7.378;2023-08-08T11:47:17;4.23;;;3.23;;
5871;SDS011;2962;51.312;7.378;2023-08-08T11:49:42;7.63;;;4.23;;
5871;SDS011;2962;51.312;7.378;2023-08-08T11:52:08;8.83;;;3.83;;
5871;SDS011;2962;51.312;7.378;2023-08-08T11:54:36;4.30;;;4.17;;
5871;SDS011;2962;51.312;7.378;2023-08-08T11:57:02;6.40;;;3.60;;
5871;SDS011;2962;51.312;7.378;2023-08-08T11:59:28;6.20;;;4.13;;
5871;SDS011;2962;51.312;7.378;2023-08-08T12:01:53;10.47;;;4.17;;
5871;SDS011;2962;51.312;7.378;2023-08-08T12:04:21;9.40;;;3.73;;
5871;SDS011;2962;51.312;7.378;2023-08-08T12:06:46;5.20;;;3.40;;
5871;SDS011;2962;51.312;7.378;2023-08-08T12:09:12;3.53;;;2.93;;
5871;SDS011;2962;51.312;7.378;2023-08-08T12:11:40;7.20;;;3.23;;
5871;SDS011;2962;51.312;7.378;2023-08-08T12:14:09;3.70;;;3.00;;
5871;SDS011;2962;51.312;7.378;2023-08-08T12:16:37;13.23;;;3.53;;
5871;SDS011;2962;51.312;7.378;2023-08-08T12:19:04;3.87;;;3.50;;
5871;SDS011;2962;51.312;7.378;2023-08-08T12:21:33;5.07;;;3.00;;
5871;SDS011;2962;51.312;7.378;2023-08-08T12:23:59;6.17;;;3.47;;
5871;SDS011;2962;51.312;7.378;2023-08-08T12:26:25;5.17;;;3.30;;
5871;SDS011;2962;51.312;7.378;2023-08-08T12:28:50;6.40;;;3.30;;
5871;SDS011;2962;51.312;7.378;2023-08-08T12:31:18;4.33;;;3.60;;
5871;SDS011;2962;51.312;7.378;2023-08-08T12:33:44;9.00;;;4.37;;
5871;SDS011;2962;51.312;7.378;2023-08-08T12:36:10;6.40;;;4.03;;
5871;SDS011;2962;51.312;7.378;2023-08-08T12:38:36;4.90;;;3.87;;
5871;SDS011;2962;51.312;7.378;2023-08-08T12:41:01;4.97;;;3.60;;
5871;SDS011;2962;51.312;7.378;2023-08-08T12:43:27;4.03;;;3.73;;
5871;SDS011;2962;51.312;7.378;2023-08-08T12:45:53;4.60;;;3.40;;
5871;SDS011;2962;51.312;7.378;2023-08-08T12:48:18;7.40;;;3.63;;
5871;SDS011;2962;51.312;7.378;2023-08-08T12:50:43;3.57;;;3.10;;
5871;SDS011;2962;51.312;7.378;2023-08-08T12:53:09;11.87;;;2.87;;
5871;SDS011;2962;51.312;7.378;2023-08-08T12:55:35;6.90;;;3.30;;
5871;SDS011;2962;51.312;7.378;2023-08-08T12:58:01;6.03;;;3.30;;
5871;SDS011;2962;51.312;7.378;2023-08-08T13:00:27;4.03;;;3.17;;
5871;SDS011;2962;51.312;7.378;2023-08-08T13:02:52;3.67;;;2.90;;
5871;SDS011;2962;51.312;7.378;2023-08-08T13:05:18;2.80;;;2.60;;
5871;SDS011;2962;51.312;7.378;2023-08-08T13:07:43;3.10;;;2.60;;
5871;SDS011;2962;51.312;7.378;2023-08-08T13:10:08;2.83;;;2.27;;
5871;SDS011;2962;51.312;7.378;2023-08-08T13:12:35;2.17;;;2.10;;
5871;SDS011;2962;51.312;7.378;2023-08-08T13:15:00;1.77;;;1.67;;
5871;SDS011;2962;51.312;7.378;2023-08-08T13:17:26;4.00;;;2.53;;
5871;SDS011;2962;51.312;7.378;2023-08-08T13:19:51;2.03;;;1.80;;
5871;SDS011;2962;51.312;7.378;2023-08-08T13:22:16;1.90;;;1.80;;
5871;SDS011;2962;51.312;7.378;2023-08-08T13:24:42;1.67;;;1.30;;
5871;SDS011;2962;51.312;7.378;2023-08-08T13:27:07;3.10;;;1.23;;
5871;SDS011;2962;51.312;7.378;2023-08-08T13:29:32;1.93;;;1.63;;
5871;SDS011;2962;51.312;7.378;2023-08-08T13:31:58;1.57;;;1.47;;
5871;SDS011;2962;51.312;7.378;2023-08-08T13:34:23;1.57;;;1.57;;
5871;SDS011;2962;51.312;7.378;2023-08-08T13:36:48;1.53;;;1.43;;
5871;SDS011;2962;51.312;7.378;2023-08-08T13:39:14;4.93;;;2.10;;
5871;SDS011;2962;51.312;7.378;2023-08-08T13:41:39;2.07;;;1.87;;
5871;SDS011;2962;51.312;7.378;2023-08-08T13:44:04;2.10;;;1.80;;
5871;SDS011;2962;51.312;7.378;2023-08-08T13:46:30;2.30;;;2.03;;
5871;SDS011;2962;51.312;7.378;2023-08-08T13:48:55;1.93;;;1.90;;
5871;SDS011;2962;51.312;7.378;2023-08-08T13:51:20;7.47;;;1.97;;
5871;SDS011;2962;51.312;7.378;2023-08-08T13:53:46;5.73;;;2.73;;
5871;SDS011;2962;51.312;7.378;2023-08-08T13:56:13;4.20;;;2.60;;
5871;SDS011;2962;51.312;7.378;2023-08-08T13:58:39;3.63;;;2.40;;
5871;SDS011;2962;51.312;7.378;2023-08-08T14:01:04;2.53;;;2.30;;
5871;SDS011;2962;51.312;7.378;2023-08-08T14:03:29;6.43;;;1.93;;
5871;SDS011;2962;51.312;7.378;2023-08-08T14:05:55;3.73;;;1.80;;
5871;SDS011;2962;51.312;7.378;2023-08-08T14:08:20;4.03;;;2.37;;
5871;SDS011;2962;51.312;7.378;2023-08-08T14:10:46;3.00;;;1.50;;
5871;SDS011;2962;51.312;7.378;2023-08-08T14:13:11;2.67;;;1.60;;
5871;SDS011;2962;51.312;7.378;2023-08-08T14:15:37;2.30;;;1.47;;
5871;SDS011;2962;51.312;7.378;2023-08-08T14:18:02;3.07;;;2.27;;
5871;SDS011;2962;51.312;7.378;2023-08-08T14:20:28;2.30;;;2.07;;
5871;SDS011;2962;51.312;7.378;2023-08-08T14:22:53;6.23;;;2.17;;
5871;SDS011;2962;51.312;7.378;2023-08-08T14:25:19;3.60;;;2.40;;
5871;SDS011;2962;51.312;7.378;2023-08-08T14:27:44;5.47;;;1.80;;
5871;SDS011;2962;51.312;7.378;2023-08-08T14:30:10;2.93;;;2.70;;
5871;SDS011;2962;51.312;7.378;2023-08-08T14:32:35;4.97;;;2.23;;
5871;SDS011;2962;51.312;7.378;2023-08-08T14:35:01;3.80;;;2.47;;
5871;SDS011;2962;51.312;7.378;2023-08-08T14:37:29;5.70;;;2.30;;
5871;SDS011;2962;51.312;7.378;2023-08-08T14:39:54;6.77;;;2.30;;
5871;SDS011;2962;51.312;7.378;2023-08-08T14:42:19;10.73;;;3.00;;
5871;SDS011;2962;51.312;7.378;2023-08-08T14:44:45;3.40;;;2.33;;
5871;SDS011;2962;51.312;7.378;2023-08-08T14:47:10;5.50;;;2.20;;
5871;SDS011;2962;51.312;7.378;2023-08-08T14:49:35;9.30;;;2.20;;
5871;SDS011;2962;51.312;7.378;2023-08-08T14:52:01;2.97;;;1.93;;
5871;SDS011;2962;51.312;7.378;2023-08-08T14:54:26;1.90;;;1.60;;
5871;SDS011;2962;51.312;7.378;2023-08-08T14:56:51;1.97;;;1.87;;
5871;SDS011;2962;51.312;7.378;2023-08-08T14:59:17;2.77;;;2.67;;
5871;SDS011;2962;51.312;7.378;2023-08-08T15:01:42;2.13;;;2.03;;
5871;SDS011;2962;51.312;7.378;2023-08-08T15:04:07;3.37;;;2.57;;
5871;SDS011;2962;51.312;7.378;2023-08-08T15:06:36;6.27;;;2.50;;
5871;SDS011;2962;51.312;7.378;2023-08-08T15:09:02;4.33;;;2.73;;